createdAt,value
2023-01-15T00:00:18.747Z,59.75
2023-01-15T00:02:50.460Z,59.95
2023-01-15T00:05:21.164Z,61.77
2023-01-15T00:07:52.629Z,62.13
2023-01-15T00:10:23.475Z,62.10
2023-01-15T00:12:54.055Z,61.64
2023-01-15T00:15:24.671Z,61.79
2023-01-15T00:17:55.222Z,61.84
2023-01-15T00:20:25.857Z,62.51
2023-01-15T00:22:56.396Z,62.22
2023-01-15T00:25:46.352Z,62.07
2023-01-15T00:28:16.842Z,62.01
2023-01-15T00:30:49.343Z,62.03
2023-01-15T00:33:20.247Z,62.06
2023-01-15T00:35:52.244Z,61.96
2023-01-15T00:38:23.177Z,63.31
2023-01-15T00:40:54.680Z,65.79
2023-01-15T00:43:25.266Z,66.97
2023-01-15T00:45:55.957Z,67.77
2023-01-15T00:48:26.608Z,68.38
2023-01-15T00:50:57.249Z,68.27
2023-01-15T00:53:28.185Z,69.18
2023-01-15T00:55:58.830Z,69.19
2023-01-15T00:58:31.885Z,69.11
2023-01-15T01:01:02.973Z,70.18
2023-01-15T01:03:33.814Z,70.30
2023-01-15T01:06:07.402Z,69.97
2023-01-15T01:08:38.287Z,70.69
2023-01-15T01:11:13.061Z,70.35
2023-01-15T01:13:45.219Z,70.84
2023-01-15T01:16:34.950Z,71.67
2023-01-15T01:19:11.031Z,71.42
2023-01-15T01:21:42.667Z,71.54
2023-01-15T01:24:15.118Z,71.36
2023-01-15T01:26:46.943Z,71.63
2023-01-15T01:29:19.190Z,72.14
2023-01-15T01:31:50.102Z,72.41
2023-01-15T01:34:21.920Z,71.83
2023-01-15T01:36:52.601Z,72.97
2023-01-15T01:39:23.143Z,72.04
2023-01-15T01:41:54.019Z,72.08
2023-01-15T01:44:36.130Z,72.06
2023-01-15T01:47:11.681Z,72.18
2023-01-15T01:49:42.485Z,71.99
2023-01-15T01:52:16.643Z,71.50
2023-01-15T01:54:48.611Z,71.66
2023-01-15T01:57:20.175Z,71.66
2023-01-15T01:59:51.106Z,72.13
2023-01-15T02:02:24.630Z,72.19
2023-01-15T02:04:55.362Z,72.34
2023-01-15T02:07:27.549Z,71.33
2023-01-15T02:09:58.292Z,73.13
2023-01-15T02:12:39.268Z,71.21
2023-01-15T02:15:21.232Z,70.85
2023-01-15T02:18:10.871Z,70.81
2023-01-15T02:20:48.468Z,70.06
2023-01-15T02:23:30.967Z,69.74
2023-01-15T02:26:14.069Z,69.47
2023-01-15T02:28:46.943Z,69.42
2023-01-15T02:31:25.946Z,69.51
2023-01-15T02:34:04.988Z,69.07
2023-01-15T02:36:39.531Z,69.60
2023-01-15T02:39:14.162Z,69.00
2023-01-15T02:41:48.033Z,69.45
2023-01-15T02:44:20.128Z,70.08
2023-01-15T02:46:52.246Z,69.62
2023-01-15T02:49:24.794Z,69.68
2023-01-15T02:52:01.103Z,69.22
2023-01-15T02:54:34.571Z,69.61
2023-01-15T02:57:06.679Z,69.24
2023-01-15T02:59:40.726Z,69.37
2023-01-15T03:02:22.099Z,69.86
2023-01-15T03:04:55.774Z,69.31
2023-01-15T03:07:29.936Z,69.57
2023-01-15T03:10:02.902Z,69.09
2023-01-15T03:13:07.170Z,69.56
2023-01-15T03:16:21.500Z,68.85
2023-01-15T03:18:57.574Z,67.89
2023-01-15T03:21:57.724Z,67.77
2023-01-15T03:24:31.545Z,67.95
2023-01-15T03:27:02.996Z,67.58
2023-01-15T03:29:36.569Z,67.45
2023-01-15T03:32:08.162Z,67.16
2023-01-15T03:34:42.720Z,66.87
2023-01-15T03:37:14.738Z,66.93
2023-01-15T03:39:45.637Z,66.62
2023-01-15T03:43:14.781Z,66.25
2023-01-15T03:45:47.730Z,64.93
2023-01-15T03:48:26.229Z,65.06
2023-01-15T03:51:02.673Z,64.89
2023-01-15T03:53:44.218Z,64.47
2023-01-15T03:56:28.920Z,64.04
2023-01-15T03:59:07.007Z,63.63
2023-01-15T04:01:54.784Z,63.07
2023-01-15T04:04:28.772Z,59.08
2023-01-15T04:07:01.408Z,54.44
2023-01-15T04:09:32.982Z,55.57
2023-01-15T04:12:03.553Z,54.67
2023-01-15T04:14:38.418Z,51.87
2023-01-15T04:17:12.215Z,53.17
2023-01-15T04:19:44.639Z,51.60
2023-01-15T04:22:17.530Z,53.13
2023-01-15T04:24:49.538Z,51.36
2023-01-15T04:27:20.207Z,50.73
2023-01-15T04:29:51.178Z,50.63
2023-01-15T04:32:21.849Z,52.02
2023-01-15T04:34:52.432Z,52.90
2023-01-15T04:37:23.083Z,53.13
2023-01-15T04:39:53.629Z,53.75
2023-01-15T04:42:42.275Z,54.05
2023-01-15T04:45:13.129Z,53.96
2023-01-15T04:47:44.085Z,53.74
2023-01-15T04:50:14.627Z,54.63
2023-01-15T04:52:45.332Z,54.69
2023-01-15T04:55:15.964Z,54.99
2023-01-15T04:57:46.890Z,54.80
2023-01-15T05:00:17.805Z,55.22
2023-01-15T05:02:48.458Z,54.59
2023-01-15T05:05:19.004Z,55.19
2023-01-15T05:07:49.673Z,54.75
2023-01-15T05:10:20.303Z,55.38
2023-01-15T05:12:51.833Z,55.38
2023-01-15T05:15:22.383Z,55.37
2023-01-15T05:17:53.175Z,55.11
2023-01-15T05:20:23.832Z,55.35
2023-01-15T05:22:54.482Z,54.58
2023-01-15T05:25:25.513Z,55.06
2023-01-15T05:27:56.256Z,56.03
2023-01-15T05:30:27.561Z,54.25
2023-01-15T05:32:58.789Z,52.51
2023-01-15T05:35:29.742Z,52.88
2023-01-15T05:38:00.390Z,52.63
2023-01-15T05:40:31.087Z,51.73
2023-01-15T05:43:01.587Z,51.72
2023-01-15T05:45:37.514Z,50.55
2023-01-15T05:48:08.077Z,49.44
2023-01-15T05:50:38.670Z,50.06
2023-01-15T05:53:09.945Z,49.71
2023-01-15T05:55:40.555Z,49.78
2023-01-15T05:58:11.096Z,49.16
2023-01-15T06:00:41.749Z,49.23
2023-01-15T06:03:12.296Z,48.51
2023-01-15T06:05:43.107Z,47.87
2023-01-15T06:08:13.943Z,47.36
2023-01-15T06:10:46.660Z,46.98
2023-01-15T06:13:18.292Z,46.35
2023-01-15T06:15:48.959Z,45.82
2023-01-15T06:18:19.632Z,45.61
2023-01-15T06:20:50.130Z,45.58
2023-01-15T06:23:20.923Z,44.72
2023-01-15T06:25:51.599Z,44.58
2023-01-15T06:28:22.602Z,44.47
2023-01-15T06:30:53.342Z,44.52
2023-01-15T06:33:24.778Z,44.02
2023-01-15T06:35:55.404Z,44.21
2023-01-15T06:38:26.021Z,44.03
2023-01-15T06:40:56.555Z,43.64
2023-01-15T06:43:45.130Z,43.56
2023-01-15T06:46:34.452Z,43.12
2023-01-15T06:49:05.078Z,43.16
2023-01-15T06:51:35.647Z,42.79
2023-01-15T06:54:06.651Z,43.15
2023-01-15T06:56:37.331Z,42.35
2023-01-15T06:59:07.911Z,42.78
2023-01-15T07:01:38.529Z,42.38
2023-01-15T07:04:09.260Z,42.16
2023-01-15T07:06:39.818Z,42.19
2023-01-15T07:09:10.425Z,41.85
2023-01-15T07:11:50.791Z,42.31
2023-01-15T07:14:23.058Z,43.04
2023-01-15T07:16:54.184Z,42.59
2023-01-15T07:19:24.877Z,43.57
2023-01-15T07:21:55.468Z,43.32
2023-01-15T07:24:26.075Z,42.85
2023-01-15T07:26:56.786Z,42.49
2023-01-15T07:29:27.429Z,42.07
2023-01-15T07:31:58.238Z,42.31
2023-01-15T07:34:29.506Z,42.11
2023-01-15T07:37:00.001Z,42.94
2023-01-15T07:39:33.108Z,45.99
2023-01-15T07:42:22.239Z,47.55
2023-01-15T07:45:11.456Z,48.16
2023-01-15T07:47:59.943Z,47.90
2023-01-15T07:50:30.578Z,46.93
2023-01-15T07:53:01.203Z,45.67
2023-01-15T07:55:32.019Z,45.51
2023-01-15T07:58:02.590Z,44.32
2023-01-15T08:00:33.224Z,43.54
2023-01-15T08:03:05.035Z,43.00
2023-01-15T08:05:35.627Z,43.48
2023-01-15T08:08:06.376Z,43.28
2023-01-15T08:10:57.105Z,42.72
2023-01-15T08:13:45.763Z,42.45
2023-01-15T08:16:16.825Z,42.58
2023-01-15T08:18:48.200Z,42.07
2023-01-15T08:21:19.063Z,42.36
2023-01-15T08:23:51.136Z,42.21
2023-01-15T08:26:21.810Z,42.00
2023-01-15T08:28:52.523Z,41.68
2023-01-15T08:31:23.618Z,46.05
2023-01-15T08:33:54.180Z,47.64
2023-01-15T08:36:24.730Z,48.43
2023-01-15T08:38:55.347Z,47.82
2023-01-15T08:41:26.210Z,47.75
2023-01-15T08:43:56.884Z,47.46
2023-01-15T08:46:27.687Z,47.01
2023-01-15T08:48:58.494Z,47.67
2023-01-15T08:51:29.216Z,48.22
2023-01-15T08:54:00.061Z,48.49
2023-01-15T08:56:30.626Z,48.84
2023-01-15T08:59:01.229Z,49.42
2023-01-15T09:01:31.864Z,50.38
2023-01-15T09:04:02.703Z,50.80
2023-01-15T09:06:33.625Z,49.70
2023-01-15T09:09:04.239Z,49.60
2023-01-15T09:11:34.768Z,50.68
2023-01-15T09:14:05.446Z,50.43
2023-01-15T09:16:36.601Z,50.74
2023-01-15T09:19:08.216Z,49.88
2023-01-15T09:21:38.793Z,49.93
2023-01-15T09:24:09.535Z,51.45
2023-01-15T09:26:41.177Z,51.27
2023-01-15T09:29:12.374Z,51.79
2023-01-15T09:31:42.992Z,51.14
2023-01-15T09:34:13.834Z,51.39
2023-01-15T09:36:44.514Z,51.40
2023-01-15T09:39:15.101Z,53.34
2023-01-15T09:42:07.024Z,52.52
2023-01-15T09:44:37.615Z,52.03
2023-01-15T09:47:13.998Z,52.21
2023-01-15T09:49:44.685Z,53.51
2023-01-15T09:52:28.301Z,53.20
2023-01-15T09:54:58.738Z,52.54
2023-01-15T09:57:29.982Z,52.76
2023-01-15T10:00:04.523Z,52.24
2023-01-15T10:02:44.865Z,52.31
2023-01-15T10:05:18.255Z,51.55
2023-01-15T10:07:48.892Z,51.52
2023-01-15T10:10:24.622Z,51.62
2023-01-15T10:12:59.796Z,53.22
2023-01-15T10:15:44.240Z,54.51
2023-01-15T10:18:18.751Z,55.10
2023-01-15T10:20:55.848Z,55.37
2023-01-15T10:23:53.548Z,54.48
2023-01-15T10:26:42.096Z,54.29
2023-01-15T10:29:24.532Z,53.70
2023-01-15T10:31:55.529Z,53.75
2023-01-15T10:34:29.114Z,53.60
2023-01-15T10:37:19.949Z,53.34
2023-01-15T10:40:00.231Z,53.54
2023-01-15T10:42:32.351Z,53.27
2023-01-15T10:45:12.026Z,53.00
2023-01-15T10:47:44.504Z,52.96
2023-01-15T10:50:23.932Z,53.03
2023-01-15T10:53:14.571Z,53.07
2023-01-15T10:55:52.027Z,52.77
2023-01-15T10:58:22.622Z,52.76
2023-01-15T11:00:57.187Z,53.07
2023-01-15T11:03:37.014Z,52.99
2023-01-15T11:06:09.688Z,53.06
2023-01-15T11:09:08.167Z,52.78
2023-01-15T11:11:51.620Z,53.48
2023-01-15T11:14:40.819Z,53.41
2023-01-15T11:17:34.406Z,53.29
2023-01-15T11:20:06.920Z,53.81
2023-01-15T11:22:40.639Z,53.45
2023-01-15T11:25:12.365Z,53.90
2023-01-15T11:27:43.295Z,53.84
2023-01-15T11:30:27.317Z,54.05
2023-01-15T11:32:59.703Z,54.01
2023-01-15T11:35:30.241Z,54.11
2023-01-15T11:38:04.743Z,54.61
2023-01-15T11:40:35.955Z,55.22
2023-01-15T11:43:38.227Z,56.63
2023-01-15T11:46:43.303Z,57.86
2023-01-15T11:49:35.964Z,58.25
2023-01-15T11:52:15.130Z,59.04
2023-01-15T11:54:48.858Z,59.74
2023-01-15T11:57:28.161Z,59.85
2023-01-15T11:59:59.375Z,60.86
2023-01-15T12:02:47.222Z,61.06
2023-01-15T12:05:27.976Z,61.13
2023-01-15T12:08:00.827Z,61.42
2023-01-15T12:10:55.842Z,61.00
2023-01-15T12:13:36.967Z,60.93
2023-01-15T12:16:07.478Z,60.57
2023-01-15T12:18:53.109Z,60.08
2023-01-15T12:21:31.339Z,60.15
2023-01-15T12:24:03.751Z,59.79
2023-01-15T12:26:36.571Z,59.78
2023-01-15T12:29:12.962Z,59.64
2023-01-15T12:31:45.805Z,59.45
2023-01-15T12:34:29.267Z,59.88
2023-01-15T12:37:06.759Z,59.83
2023-01-15T12:39:43.149Z,59.80
2023-01-15T12:42:36.023Z,59.79
2023-01-15T12:45:10.585Z,59.34
2023-01-15T12:47:45.150Z,59.23
2023-01-15T12:50:21.823Z,59.05
2023-01-15T12:52:56.013Z,59.51
2023-01-15T12:55:36.196Z,59.49
2023-01-15T12:58:13.339Z,60.20
2023-01-15T13:00:44.868Z,59.88
2023-01-15T13:03:32.286Z,60.37
2023-01-15T13:06:04.692Z,60.44
2023-01-15T13:08:41.491Z,60.21
2023-01-15T13:11:15.411Z,60.24
2023-01-15T13:13:59.376Z,60.50
2023-01-15T13:16:35.313Z,60.42
2023-01-15T13:19:28.930Z,60.37
2023-01-15T13:22:03.770Z,60.20
2023-01-15T13:24:46.026Z,60.78
2023-01-15T13:27:43.262Z,60.27
2023-01-15T13:30:32.425Z,60.63
2023-01-15T13:33:26.985Z,60.27
2023-01-15T13:36:03.049Z,60.98
2023-01-15T13:38:39.823Z,61.06
2023-01-15T13:41:10.826Z,60.90
2023-01-15T13:43:43.741Z,61.60
2023-01-15T13:46:16.469Z,62.18
2023-01-15T13:48:51.661Z,61.38
2023-01-15T13:51:28.567Z,60.50
2023-01-15T13:54:01.295Z,59.82
2023-01-15T13:56:33.808Z,59.33
2023-01-15T13:59:07.473Z,58.68
2023-01-15T14:01:39.062Z,57.98
2023-01-15T14:04:17.062Z,57.67
2023-01-15T14:06:51.795Z,59.02
2023-01-15T14:09:25.340Z,59.51
2023-01-15T14:12:15.026Z,60.35
2023-01-15T14:14:51.394Z,58.48
2023-01-15T14:17:37.306Z,56.14
2023-01-15T14:20:26.452Z,55.10
2023-01-15T14:23:06.724Z,55.25
2023-01-15T14:25:43.200Z,54.55
2023-01-15T14:28:25.934Z,53.70
2023-01-15T14:31:14.949Z,53.70
2023-01-15T14:33:48.871Z,52.59
2023-01-15T14:36:20.883Z,52.41
2023-01-15T14:38:54.515Z,51.83
2023-01-15T14:41:58.589Z,50.85
2023-01-15T14:44:33.929Z,50.42
2023-01-15T14:47:06.295Z,50.48
2023-01-15T14:49:51.089Z,49.64
2023-01-15T14:52:26.499Z,49.85
2023-01-15T14:54:57.632Z,49.39
2023-01-15T14:57:28.427Z,49.69
2023-01-15T15:00:02.270Z,48.76
2023-01-15T15:02:45.772Z,48.57
2023-01-15T15:05:18.611Z,48.16
2023-01-15T15:07:54.263Z,48.11
2023-01-15T15:10:36.507Z,48.02
2023-01-15T15:13:16.780Z,47.42
2023-01-15T15:16:05.633Z,46.76
2023-01-15T15:19:01.790Z,45.97
2023-01-15T15:21:35.288Z,46.02
2023-01-15T15:24:05.862Z,45.16
2023-01-15T15:26:37.987Z,45.48
2023-01-15T15:29:09.448Z,45.21
2023-01-15T15:31:45.342Z,44.71
2023-01-15T15:34:34.960Z,44.84
2023-01-15T15:37:07.383Z,45.08
2023-01-15T15:39:44.093Z,45.31
2023-01-15T15:42:44.704Z,45.72
2023-01-15T15:45:38.239Z,46.21
2023-01-15T15:49:09.328Z,46.92
2023-01-15T15:51:59.922Z,46.47
2023-01-15T15:54:32.092Z,47.02
2023-01-15T15:57:13.648Z,46.35
2023-01-15T15:59:52.311Z,46.92
2023-01-15T16:02:38.084Z,46.12
2023-01-15T16:05:20.976Z,46.41
2023-01-15T16:07:52.090Z,46.43
2023-01-15T16:10:31.733Z,46.00
2023-01-15T16:13:04.430Z,46.40
2023-01-15T16:15:42.354Z,45.89
2023-01-15T16:18:26.072Z,45.86
2023-01-15T16:20:58.139Z,46.08
2023-01-15T16:23:30.730Z,46.07
2023-01-15T16:26:10.117Z,45.90
2023-01-15T16:28:45.399Z,45.81
2023-01-15T16:31:17.192Z,45.64
2023-01-15T16:33:49.068Z,45.95
2023-01-15T16:36:21.009Z,45.62
2023-01-15T16:38:52.750Z,45.62
2023-01-15T16:41:29.025Z,45.80
2023-01-15T16:44:09.411Z,45.86
2023-01-15T16:46:54.526Z,45.63
2023-01-15T16:49:29.652Z,45.70
2023-01-15T16:52:02.061Z,45.24
2023-01-15T16:54:32.669Z,44.56
2023-01-15T16:57:04.838Z,44.30
2023-01-15T16:59:36.565Z,43.59
2023-01-15T17:02:17.733Z,43.59
2023-01-15T17:04:48.909Z,42.79
2023-01-15T17:07:27.513Z,42.84
2023-01-15T17:09:59.946Z,42.58
2023-01-15T17:12:44.603Z,42.47
2023-01-15T17:15:18.409Z,42.11
2023-01-15T17:17:53.331Z,42.16
2023-01-15T17:20:29.296Z,41.92
2023-01-15T17:23:00.002Z,41.85
2023-01-15T17:25:34.746Z,41.95
2023-01-15T17:28:06.041Z,42.49
2023-01-15T17:30:36.938Z,42.56
2023-01-15T17:33:08.236Z,43.28
2023-01-15T17:35:39.989Z,42.79
2023-01-15T17:38:13.473Z,42.58
2023-01-15T17:40:44.304Z,42.58
2023-01-15T17:43:16.248Z,42.50
2023-01-15T17:45:47.067Z,42.04
2023-01-15T17:48:19.788Z,41.83
2023-01-15T17:50:50.690Z,41.87
2023-01-15T17:53:21.880Z,41.95
2023-01-15T17:56:10.533Z,42.26
2023-01-15T17:58:59.171Z,42.84
2023-01-15T18:01:48.933Z,42.94
2023-01-15T18:04:44.388Z,43.47
2023-01-15T18:07:16.389Z,43.97
2023-01-15T18:09:47.242Z,44.04
2023-01-15T18:12:21.089Z,43.96
2023-01-15T18:14:52.079Z,44.23
2023-01-15T18:17:22.694Z,44.51
2023-01-15T18:19:55.067Z,44.88
2023-01-15T18:22:27.028Z,44.66
2023-01-15T18:24:58.068Z,44.44
2023-01-15T18:27:31.542Z,44.07
2023-01-15T18:30:02.233Z,44.21
2023-01-15T18:32:34.617Z,43.85
2023-01-15T18:35:05.246Z,43.51
2023-01-15T18:37:36.509Z,43.52
2023-01-15T18:40:07.556Z,43.52
2023-01-15T18:42:58.093Z,42.99
2023-01-15T18:45:46.719Z,42.96
2023-01-15T18:48:17.284Z,42.84
2023-01-15T18:50:50.227Z,42.89
2023-01-15T18:53:20.775Z,42.84
2023-01-15T18:55:52.255Z,42.88
2023-01-15T18:58:23.214Z,42.58
2023-01-15T19:00:53.906Z,42.68
2023-01-15T19:03:24.503Z,42.66
2023-01-15T19:05:55.176Z,42.92
2023-01-15T19:08:28.879Z,43.05
2023-01-15T19:10:59.482Z,43.29
2023-01-15T19:13:29.964Z,43.55
2023-01-15T19:16:18.588Z,43.70
2023-01-15T19:18:54.874Z,43.84
2023-01-15T19:21:26.432Z,44.00
2023-01-15T19:23:56.883Z,44.14
2023-01-15T19:26:27.554Z,44.04
2023-01-15T19:28:58.089Z,44.47
2023-01-15T19:31:38.190Z,44.33
2023-01-15T19:34:32.801Z,44.44
2023-01-15T19:37:02.341Z,44.65
2023-01-15T19:39:33.255Z,44.63
2023-01-15T19:42:22.246Z,45.01
2023-01-15T19:45:11.228Z,45.09
2023-01-15T19:48:00.981Z,44.98
2023-01-15T19:50:42.938Z,44.68
2023-01-15T19:53:13.827Z,44.96
2023-01-15T19:55:46.517Z,45.19
2023-01-15T19:58:17.852Z,45.11
2023-01-15T20:00:54.200Z,44.91
2023-01-15T20:03:25.042Z,45.28
2023-01-15T20:05:56.251Z,45.20
2023-01-15T20:08:27.168Z,45.17
2023-01-15T20:10:57.678Z,45.38
2023-01-15T20:13:46.361Z,45.10
2023-01-15T20:16:20.931Z,45.27
2023-01-15T20:18:51.848Z,45.27
2023-01-15T20:21:22.510Z,45.10
2023-01-15T20:23:53.244Z,45.29
2023-01-15T20:26:25.769Z,45.01
2023-01-15T20:28:56.366Z,45.20
2023-01-15T20:31:27.643Z,45.21
2023-01-15T20:34:03.077Z,45.18
2023-01-15T20:36:36.161Z,45.33
2023-01-15T20:39:07.698Z,45.28
2023-01-15T20:41:56.750Z,45.22
2023-01-15T20:44:44.956Z,45.10
2023-01-15T20:47:33.501Z,45.30
2023-01-15T20:50:04.121Z,45.27
2023-01-15T20:52:34.694Z,45.15
2023-01-15T20:55:07.054Z,45.42
2023-01-15T20:57:39.236Z,45.20
2023-01-15T21:00:17.707Z,45.11
2023-01-15T21:02:48.872Z,45.57
2023-01-15T21:05:21.926Z,45.20
2023-01-15T21:07:52.624Z,45.50
2023-01-15T21:10:24.465Z,45.22
2023-01-15T21:12:55.184Z,45.39
2023-01-15T21:15:25.901Z,45.25
2023-01-15T21:17:57.097Z,45.30
2023-01-15T21:20:27.823Z,45.20
2023-01-15T21:22:59.127Z,45.18
2023-01-15T21:25:29.594Z,45.15
2023-01-15T21:28:00.284Z,45.38
2023-01-15T21:30:30.740Z,45.53
2023-01-15T21:33:01.245Z,45.39
2023-01-15T21:35:31.829Z,45.33
2023-01-15T21:38:02.381Z,45.54
2023-01-15T21:40:32.997Z,45.12
2023-01-15T21:43:21.586Z,45.25
2023-01-15T21:45:52.910Z,45.36
2023-01-15T21:48:23.496Z,45.37
2023-01-15T21:50:54.069Z,45.42
2023-01-15T21:53:24.905Z,45.35
2023-01-15T21:55:55.424Z,45.33
2023-01-15T21:58:26.139Z,45.35
2023-01-15T22:00:58.747Z,45.53
2023-01-15T22:03:29.345Z,45.53
2023-01-15T22:06:04.118Z,45.53
2023-01-15T22:08:35.511Z,46.75
2023-01-15T22:11:10.451Z,46.98
2023-01-15T22:13:42.279Z,47.71
2023-01-15T22:16:12.801Z,48.71
2023-01-15T22:18:43.439Z,49.18
2023-01-15T22:21:17.191Z,49.48
2023-01-15T22:23:49.298Z,49.74
2023-01-15T22:26:20.710Z,49.64
2023-01-15T22:28:53.031Z,50.47
2023-01-15T22:31:23.919Z,50.86
2023-01-15T22:33:54.556Z,51.06
2023-01-15T22:36:25.648Z,52.96
2023-01-15T22:38:56.758Z,52.70
2023-01-15T22:41:45.488Z,52.48
2023-01-15T22:44:16.057Z,52.08
2023-01-15T22:46:47.367Z,52.78
2023-01-15T22:49:18.956Z,53.45
2023-01-15T22:51:49.968Z,54.65
2023-01-15T22:54:20.706Z,54.94
2023-01-15T22:56:51.326Z,54.85
2023-01-15T22:59:22.307Z,55.56
2023-01-15T23:01:53.232Z,56.15
2023-01-15T23:04:25.629Z,56.50
2023-01-15T23:06:56.537Z,56.85
2023-01-15T23:09:27.774Z,57.33
2023-01-15T23:11:58.340Z,57.79
2023-01-15T23:14:28.945Z,58.04
2023-01-15T23:16:59.868Z,57.97
2023-01-15T23:19:30.417Z,58.35
2023-01-15T23:22:02.073Z,58.76
2023-01-15T23:24:32.608Z,58.81
2023-01-15T23:27:03.387Z,59.11
2023-01-15T23:29:37.009Z,59.41
2023-01-15T23:32:07.723Z,59.52
2023-01-15T23:34:38.221Z,59.51
2023-01-15T23:37:09.058Z,59.50
2023-01-15T23:39:39.573Z,59.98
2023-01-15T23:42:29.665Z,59.85
2023-01-15T23:45:18.368Z,63.45
2023-01-15T23:47:49.567Z,66.47
2023-01-15T23:50:20.088Z,68.54
2023-01-15T23:52:50.831Z,68.93
2023-01-15T23:55:21.519Z,69.01
2023-01-15T23:57:52.298Z,69.41
